KLAN 251026Z 2510/2606 08006KT 1 1/2SM -SN OVC008
FM251600 06009KT 3/4SM -SN BR OVC009
FM260100 36007KT 1 1/2SM -SN BR OVC011
From batch tds/tafs/production/2023/1/25/h10_m29_tafs.cache.xml
Issued (10 days ago)
Forecasts
2510/2516 8006KT OVC800

---
wx_string: "-SN"
fcst_time_to: '2023-01-25T16:00:00Z'
sky_condition:
- sky_cover: OVC
  cloud_base_ft_agl: '800'
wind_speed_kt: '6'
fcst_time_from: '2023-01-25T10:00:00Z'
wind_dir_degrees: '80'
visibility_statute_mi: '1.5'

FM251600 6009KT OVC900

---
wx_string: "-SN BR"
fcst_time_to: '2023-01-26T01:00:00Z'
sky_condition:
- sky_cover: OVC
  cloud_base_ft_agl: '900'
wind_speed_kt: '9'
fcst_time_from: '2023-01-25T16:00:00Z'
change_indicator: FM
wind_dir_degrees: '60'
visibility_statute_mi: '0.75'

FM260100 36007KT OVC1100

---
wx_string: "-SN BR"
fcst_time_to: '2023-01-26T06:00:00Z'
sky_condition:
- sky_cover: OVC
  cloud_base_ft_agl: '1100'
wind_speed_kt: '7'
fcst_time_from: '2023-01-26T01:00:00Z'
change_indicator: FM
wind_dir_degrees: '360'
visibility_statute_mi: '1.5'

talk